sensor_id;sensor_type;location;lat;lon;timestamp;P1;durP1;ratioP1;P2;durP2;ratioP2
80322;SDS011;69636;52.372;13.610;2023-05-07T08:13:23;1187.10;;;999.90;;
80322;SDS011;69636;52.372;13.610;2023-05-07T08:15:50;1172.00;;;999.90;;
80322;SDS011;69636;52.372;13.610;2023-05-07T08:22:06;1260.15;;;999.90;;
80322;SDS011;69636;52.372;13.610;2023-05-07T08:24:32;1271.80;;;999.90;;
80322;SDS011;69636;52.372;13.610;2023-05-07T08:26:58;12.48;;;11.30;;
80322;SDS011;69636;52.372;13.610;2023-05-07T08:29:25;5.63;;;3.75;;
80322;SDS011;69636;52.372;13.610;2023-05-07T08:31:51;4.60;;;4.10;;
80322;SDS011;69636;52.372;13.610;2023-05-07T08:34:17;4.03;;;3.38;;
80322;SDS011;69636;52.372;13.610;2023-05-07T08:41:49;4.78;;;3.78;;
80322;SDS011;69636;52.372;13.610;2023-05-07T08:44:21;5.72;;;3.55;;
80322;SDS011;69636;52.372;13.610;2023-05-07T08:46:48;3.83;;;2.28;;
80322;SDS011;69636;52.372;13.610;2023-05-07T08:52:16;3.85;;;2.90;;
80322;SDS011;69636;52.372;13.610;2023-05-07T08:57:08;3.70;;;2.10;;
80322;SDS011;69636;52.372;13.610;2023-05-07T08:59:34;3.30;;;2.13;;
80322;SDS011;69636;52.372;13.610;2023-05-07T09:02:01;3.38;;;1.85;;
80322;SDS011;69636;52.372;13.610;2023-05-07T09:04:27;3.28;;;2.00;;
80322;SDS011;69636;52.372;13.610;2023-05-07T09:06:53;3.85;;;2.55;;
80322;SDS011;69636;52.372;13.610;2023-05-07T09:09:21;3.63;;;1.95;;
80322;SDS011;69636;52.372;13.610;2023-05-07T09:11:47;4.05;;;2.05;;
80322;SDS011;69636;52.372;13.610;2023-05-07T09:14:14;4.53;;;2.28;;
80322;SDS011;69636;52.372;13.610;2023-05-07T09:16:40;3.45;;;2.28;;
80322;SDS011;69636;52.372;13.610;2023-05-07T09:19:06;4.32;;;2.45;;
80322;SDS011;69636;52.372;13.610;2023-05-07T09:21:32;5.75;;;2.08;;
80322;SDS011;69636;52.372;13.610;2023-05-07T09:23:58;3.53;;;1.90;;
80322;SDS011;69636;52.372;13.610;2023-05-07T09:26:26;4.28;;;2.33;;
80322;SDS011;69636;52.372;13.610;2023-05-07T09:28:52;26.70;;;19.23;;
80322;SDS011;69636;52.372;13.610;2023-05-07T09:31:20;25.05;;;18.45;;
80322;SDS011;69636;52.372;13.610;2023-05-07T09:33:47;4.22;;;2.33;;
80322;SDS011;69636;52.372;13.610;2023-05-07T09:36:13;5.80;;;2.65;;
80322;SDS011;69636;52.372;13.610;2023-05-07T09:38:40;3.92;;;2.45;;
80322;SDS011;69636;52.372;13.610;2023-05-07T09:41:07;5.05;;;2.58;;
80322;SDS011;69636;52.372;13.610;2023-05-07T09:46:03;3.78;;;2.38;;
80322;SDS011;69636;52.372;13.610;2023-05-07T09:48:34;3.22;;;2.10;;
80322;SDS011;69636;52.372;13.610;2023-05-07T09:51:02;3.72;;;2.15;;
80322;SDS011;69636;52.372;13.610;2023-05-07T09:53:37;4.22;;;1.70;;
80322;SDS011;69636;52.372;13.610;2023-05-07T09:56:04;2.80;;;1.58;;
80322;SDS011;69636;52.372;13.610;2023-05-07T09:58:32;3.25;;;2.38;;
80322;SDS011;69636;52.372;13.610;2023-05-07T10:01:03;3.20;;;1.92;;
80322;SDS011;69636;52.372;13.610;2023-05-07T10:03:31;5.28;;;1.75;;
80322;SDS011;69636;52.372;13.610;2023-05-07T10:08:26;2.95;;;2.15;;
80322;SDS011;69636;52.372;13.610;2023-05-07T10:10:52;3.17;;;1.70;;
80322;SDS011;69636;52.372;13.610;2023-05-07T10:13:19;3.17;;;2.25;;
80322;SDS011;69636;52.372;13.610;2023-05-07T10:15:46;2.85;;;2.15;;
80322;SDS011;69636;52.372;13.610;2023-05-07T10:18:14;2.50;;;1.52;;
80322;SDS011;69636;52.372;13.610;2023-05-07T10:20:41;3.47;;;2.15;;
80322;SDS011;69636;52.372;13.610;2023-05-07T10:23:12;2.72;;;1.83;;
80322;SDS011;69636;52.372;13.610;2023-05-07T10:25:42;3.88;;;2.25;;
80322;SDS011;69636;52.372;13.610;2023-05-07T10:28:09;3.10;;;2.03;;
80322;SDS011;69636;52.372;13.610;2023-05-07T10:30:40;3.35;;;1.90;;
80322;SDS011;69636;52.372;13.610;2023-05-07T10:33:20;3.50;;;2.00;;
80322;SDS011;69636;52.372;13.610;2023-05-07T10:35:50;3.78;;;1.83;;
80322;SDS011;69636;52.372;13.610;2023-05-07T10:38:22;3.60;;;2.45;;
80322;SDS011;69636;52.372;13.610;2023-05-07T10:40:50;2.78;;;1.88;;
80322;SDS011;69636;52.372;13.610;2023-05-07T10:43:17;2.83;;;1.88;;
80322;SDS011;69636;52.372;13.610;2023-05-07T10:45:43;2.85;;;1.65;;
80322;SDS011;69636;52.372;13.610;2023-05-07T10:48:10;2.55;;;1.52;;
80322;SDS011;69636;52.372;13.610;2023-05-07T10:50:42;3.65;;;2.15;;
80322;SDS011;69636;52.372;13.610;2023-05-07T10:53:22;3.17;;;1.95;;
80322;SDS011;69636;52.372;13.610;2023-05-07T10:55:50;2.95;;;1.85;;
80322;SDS011;69636;52.372;13.610;2023-05-07T10:58:22;4.05;;;2.13;;
80322;SDS011;69636;52.372;13.610;2023-05-07T11:00:49;3.72;;;2.65;;
80322;SDS011;69636;52.372;13.610;2023-05-07T11:03:15;4.13;;;2.30;;
80322;SDS011;69636;52.372;13.610;2023-05-07T11:05:43;5.05;;;3.28;;
80322;SDS011;69636;52.372;13.610;2023-05-07T11:08:11;3.55;;;2.08;;
80322;SDS011;69636;52.372;13.610;2023-05-07T11:10:50;3.75;;;1.98;;
80322;SDS011;69636;52.372;13.610;2023-05-07T11:13:17;3.33;;;2.13;;
80322;SDS011;69636;52.372;13.610;2023-05-07T11:15:45;4.60;;;2.45;;
80322;SDS011;69636;52.372;13.610;2023-05-07T11:18:13;5.03;;;2.00;;
80322;SDS011;69636;52.372;13.610;2023-05-07T11:26:24;4.45;;;2.10;;
80322;SDS011;69636;52.372;13.610;2023-05-07T11:28:55;3.50;;;2.08;;
80322;SDS011;69636;52.372;13.610;2023-05-07T11:31:22;4.07;;;2.33;;
80322;SDS011;69636;52.372;13.610;2023-05-07T11:33:50;4.45;;;2.30;;
80322;SDS011;69636;52.372;13.610;2023-05-07T11:36:19;3.00;;;1.55;;
80322;SDS011;69636;52.372;13.610;2023-05-07T11:38:47;4.32;;;2.05;;
80322;SDS011;69636;52.372;13.610;2023-05-07T11:41:15;3.53;;;2.17;;
80322;SDS011;69636;52.372;13.610;2023-05-07T11:43:58;3.47;;;2.17;;
80322;SDS011;69636;52.372;13.610;2023-05-07T11:46:26;3.45;;;1.92;;
80322;SDS011;69636;52.372;13.610;2023-05-07T11:48:53;5.07;;;2.33;;
80322;SDS011;69636;52.372;13.610;2023-05-07T11:51:22;3.58;;;1.52;;
80322;SDS011;69636;52.372;13.610;2023-05-07T11:53:50;3.13;;;1.70;;
80322;SDS011;69636;52.372;13.610;2023-05-07T11:56:16;2.72;;;1.55;;
80322;SDS011;69636;52.372;13.610;2023-05-07T11:58:44;3.05;;;1.73;;
80322;SDS011;69636;52.372;13.610;2023-05-07T12:01:12;3.25;;;2.00;;
80322;SDS011;69636;52.372;13.610;2023-05-07T12:03:39;3.58;;;1.88;;
80322;SDS011;69636;52.372;13.610;2023-05-07T12:06:07;3.33;;;1.83;;
80322;SDS011;69636;52.372;13.610;2023-05-07T12:08:38;3.72;;;1.75;;
80322;SDS011;69636;52.372;13.610;2023-05-07T12:11:06;3.13;;;2.00;;
80322;SDS011;69636;52.372;13.610;2023-05-07T12:13:33;10.82;;;7.82;;
80322;SDS011;69636;52.372;13.610;2023-05-07T12:15:59;20.58;;;15.13;;
80322;SDS011;69636;52.372;13.610;2023-05-07T12:18:25;2.70;;;1.63;;
80322;SDS011;69636;52.372;13.610;2023-05-07T12:20:55;3.55;;;2.20;;
80322;SDS011;69636;52.372;13.610;2023-05-07T12:23:21;4.95;;;1.67;;
80322;SDS011;69636;52.372;13.610;2023-05-07T12:25:49;2.97;;;1.52;;
80322;SDS011;69636;52.372;13.610;2023-05-07T12:30:43;2.72;;;1.33;;
80322;SDS011;69636;52.372;13.610;2023-05-07T12:33:10;2.67;;;1.25;;
80322;SDS011;69636;52.372;13.610;2023-05-07T12:35:39;2.65;;;1.23;;
80322;SDS011;69636;52.372;13.610;2023-05-07T12:38:07;2.72;;;1.45;;
80322;SDS011;69636;52.372;13.610;2023-05-07T12:40:35;2.67;;;1.50;;
80322;SDS011;69636;52.372;13.610;2023-05-07T12:43:03;2.95;;;1.40;;
80322;SDS011;69636;52.372;13.610;2023-05-07T12:45:29;3.05;;;1.63;;
80322;SDS011;69636;52.372;13.610;2023-05-07T12:47:55;2.85;;;1.92;;
80322;SDS011;69636;52.372;13.610;2023-05-07T12:50:22;3.80;;;1.75;;
80322;SDS011;69636;52.372;13.610;2023-05-07T12:52:48;6.65;;;1.73;;
80322;SDS011;69636;52.372;13.610;2023-05-07T12:55:15;2.70;;;1.15;;
80322;SDS011;69636;52.372;13.610;2023-05-07T13:00:11;3.33;;;1.67;;
80322;SDS011;69636;52.372;13.610;2023-05-07T13:02:40;2.47;;;1.23;;
80322;SDS011;69636;52.372;13.610;2023-05-07T13:05:07;2.40;;;1.42;;
80322;SDS011;69636;52.372;13.610;2023-05-07T13:07:34;2.25;;;1.40;;
80322;SDS011;69636;52.372;13.610;2023-05-07T13:10:00;2.65;;;1.35;;
80322;SDS011;69636;52.372;13.610;2023-05-07T13:12:26;3.15;;;1.45;;
80322;SDS011;69636;52.372;13.610;2023-05-07T13:14:52;2.75;;;1.52;;
80322;SDS011;69636;52.372;13.610;2023-05-07T13:17:19;2.60;;;1.60;;
80322;SDS011;69636;52.372;13.610;2023-05-07T13:22:12;2.78;;;1.25;;
80322;SDS011;69636;52.372;13.610;2023-05-07T13:24:38;3.50;;;1.30;;
80322;SDS011;69636;52.372;13.610;2023-05-07T13:27:04;3.42;;;1.15;;
80322;SDS011;69636;52.372;13.610;2023-05-07T13:29:30;2.20;;;1.05;;
80322;SDS011;69636;52.372;13.610;2023-05-07T13:31:56;4.18;;;1.30;;
80322;SDS011;69636;52.372;13.610;2023-05-07T13:34:24;3.50;;;1.60;;
80322;SDS011;69636;52.372;13.610;2023-05-07T13:36:50;2.60;;;1.48;;
80322;SDS011;69636;52.372;13.610;2023-05-07T13:39:16;2.88;;;1.35;;
80322;SDS011;69636;52.372;13.610;2023-05-07T13:41:42;3.25;;;1.45;;
80322;SDS011;69636;52.372;13.610;2023-05-07T13:44:08;2.72;;;1.65;;
80322;SDS011;69636;52.372;13.610;2023-05-07T13:46:34;2.88;;;1.77;;
80322;SDS011;69636;52.372;13.610;2023-05-07T13:49:00;2.65;;;1.50;;
80322;SDS011;69636;52.372;13.610;2023-05-07T13:51:28;3.50;;;2.15;;
80322;SDS011;69636;52.372;13.610;2023-05-07T13:53:54;3.40;;;1.63;;
80322;SDS011;69636;52.372;13.610;2023-05-07T13:56:20;3.17;;;2.03;;
80322;SDS011;69636;52.372;13.610;2023-05-07T13:58:46;2.92;;;1.73;;
80322;SDS011;69636;52.372;13.610;2023-05-07T14:01:12;2.80;;;1.50;;
80322;SDS011;69636;52.372;13.610;2023-05-07T14:03:42;2.92;;;1.73;;
80322;SDS011;69636;52.372;13.610;2023-05-07T14:06:08;3.38;;;2.15;;
80322;SDS011;69636;52.372;13.610;2023-05-07T14:08:35;3.15;;;1.98;;
80322;SDS011;69636;52.372;13.610;2023-05-07T14:11:02;8.07;;;4.05;;
80322;SDS011;69636;52.372;13.610;2023-05-07T14:13:28;3.50;;;1.58;;
80322;SDS011;69636;52.372;13.610;2023-05-07T14:15:54;3.05;;;2.00;;
80322;SDS011;69636;52.372;13.610;2023-05-07T14:18:20;2.60;;;1.65;;
80322;SDS011;69636;52.372;13.610;2023-05-07T14:20:48;2.72;;;1.73;;
80322;SDS011;69636;52.372;13.610;2023-05-07T14:23:14;2.63;;;1.80;;
80322;SDS011;69636;52.372;13.610;2023-05-07T14:25:41;34.53;;;27.10;;
80322;SDS011;69636;52.372;13.610;2023-05-07T14:28:08;4.43;;;2.40;;
80322;SDS011;69636;52.372;13.610;2023-05-07T14:30:34;2.75;;;1.40;;
80322;SDS011;69636;52.372;13.610;2023-05-07T14:33:00;2.58;;;1.35;;
80322;SDS011;69636;52.372;13.610;2023-05-07T14:35:26;3.53;;;2.00;;
80322;SDS011;69636;52.372;13.610;2023-05-07T14:37:52;2.55;;;1.52;;
80322;SDS011;69636;52.372;13.610;2023-05-07T14:40:20;3.78;;;1.70;;
80322;SDS011;69636;52.372;13.610;2023-05-07T14:42:47;3.95;;;1.63;;
80322;SDS011;69636;52.372;13.610;2023-05-07T14:45:13;3.03;;;1.83;;
80322;SDS011;69636;52.372;13.610;2023-05-07T14:47:39;3.47;;;1.58;;
80322;SDS011;69636;52.372;13.610;2023-05-07T14:50:06;3.53;;;1.95;;
80322;SDS011;69636;52.372;13.610;2023-05-07T14:52:32;4.22;;;2.15;;
80322;SDS011;69636;52.372;13.610;2023-05-07T14:54:58;2.92;;;2.05;;
80322;SDS011;69636;52.372;13.610;2023-05-07T14:57:24;2.80;;;1.85;;
80322;SDS011;69636;52.372;13.610;2023-05-07T14:59:52;2.85;;;1.73;;
80322;SDS011;69636;52.372;13.610;2023-05-07T15:02:18;3.95;;;2.22;;
80322;SDS011;69636;52.372;13.610;2023-05-07T15:04:44;3.10;;;2.00;;
80322;SDS011;69636;52.372;13.610;2023-05-07T15:07:11;2.72;;;1.77;;
80322;SDS011;69636;52.372;13.610;2023-05-07T15:09:38;3.05;;;2.05;;
80322;SDS011;69636;52.372;13.610;2023-05-07T15:12:06;3.55;;;1.92;;
80322;SDS011;69636;52.372;13.610;2023-05-07T15:14:32;3.28;;;1.98;;
80322;SDS011;69636;52.372;13.610;2023-05-07T15:17:00;2.78;;;1.98;;
80322;SDS011;69636;52.372;13.610;2023-05-07T15:19:29;3.50;;;1.98;;
80322;SDS011;69636;52.372;13.610;2023-05-07T15:21:57;3.55;;;2.45;;
80322;SDS011;69636;52.372;13.610;2023-05-07T15:24:23;4.65;;;2.40;;
80322;SDS011;69636;52.372;13.610;2023-05-07T15:26:51;3.35;;;2.55;;
80322;SDS011;69636;52.372;13.610;2023-05-07T15:29:17;3.30;;;2.03;;
80322;SDS011;69636;52.372;13.610;2023-05-07T15:31:46;3.35;;;2.40;;
80322;SDS011;69636;52.372;13.610;2023-05-07T15:34:14;4.43;;;2.40;;
80322;SDS011;69636;52.372;13.610;2023-05-07T15:36:40;2.95;;;1.90;;
80322;SDS011;69636;52.372;13.610;2023-05-07T15:39:06;3.53;;;2.00;;
80322;SDS011;69636;52.372;13.610;2023-05-07T15:41:32;3.60;;;2.33;;
80322;SDS011;69636;52.372;13.610;2023-05-07T15:43:58;3.70;;;2.03;;
80322;SDS011;69636;52.372;13.610;2023-05-07T15:46:25;3.55;;;2.60;;
80322;SDS011;69636;52.372;13.610;2023-05-07T15:48:51;4.10;;;2.58;;
80322;SDS011;69636;52.372;13.610;2023-05-07T15:51:20;3.38;;;2.72;;
80322;SDS011;69636;52.372;13.610;2023-05-07T15:53:46;5.00;;;2.67;;
80322;SDS011;69636;52.372;13.610;2023-05-07T15:56:13;4.15;;;3.08;;
80322;SDS011;69636;52.372;13.610;2023-05-07T15:58:41;4.68;;;3.20;;
80322;SDS011;69636;52.372;13.610;2023-05-07T16:03:42;3.60;;;2.60;;
80322;SDS011;69636;52.372;13.610;2023-05-07T16:08:35;3.55;;;2.65;;
80322;SDS011;69636;52.372;13.610;2023-05-07T16:11:01;3.75;;;2.63;;
80322;SDS011;69636;52.372;13.610;2023-05-07T16:13:27;3.80;;;2.53;;
80322;SDS011;69636;52.372;13.610;2023-05-07T16:15:54;4.78;;;2.50;;
80322;SDS011;69636;52.372;13.610;2023-05-07T16:22:16;4.80;;;2.72;;
80322;SDS011;69636;52.372;13.610;2023-05-07T16:24:44;3.80;;;2.55;;
80322;SDS011;69636;52.372;13.610;2023-05-07T16:27:11;3.50;;;2.50;;
80322;SDS011;69636;52.372;13.610;2023-05-07T16:29:39;3.83;;;2.35;;
80322;SDS011;69636;52.372;13.610;2023-05-07T16:32:06;3.45;;;2.15;;
80322;SDS011;69636;52.372;13.610;2023-05-07T16:34:34;2.85;;;1.55;;
80322;SDS011;69636;52.372;13.610;2023-05-07T16:37:02;2.85;;;2.05;;
80322;SDS011;69636;52.372;13.610;2023-05-07T16:39:33;2.90;;;1.90;;
80322;SDS011;69636;52.372;13.610;2023-05-07T16:42:00;2.85;;;1.85;;
80322;SDS011;69636;52.372;13.610;2023-05-07T16:44:27;7.05;;;2.15;;
80322;SDS011;69636;52.372;13.610;2023-05-07T16:46:54;2.45;;;1.40;;
80322;SDS011;69636;52.372;13.610;2023-05-07T16:49:22;3.20;;;1.67;;
80322;SDS011;69636;52.372;13.610;2023-05-07T16:51:49;8.80;;;7.78;;
80322;SDS011;69636;52.372;13.610;2023-05-07T16:54:16;3.13;;;2.13;;
80322;SDS011;69636;52.372;13.610;2023-05-07T16:56:45;3.08;;;1.75;;
80322;SDS011;69636;52.372;13.610;2023-05-07T16:59:12;3.38;;;1.70;;
80322;SDS011;69636;52.372;13.610;2023-05-07T17:01:39;3.13;;;1.98;;
80322;SDS011;69636;52.372;13.610;2023-05-07T17:04:07;2.97;;;1.95;;
80322;SDS011;69636;52.372;13.610;2023-05-07T17:06:34;3.00;;;2.03;;
80322;SDS011;69636;52.372;13.610;2023-05-07T17:09:03;4.35;;;2.33;;
80322;SDS011;69636;52.372;13.610;2023-05-07T17:11:30;4.13;;;2.75;;
80322;SDS011;69636;52.372;13.610;2023-05-07T17:13:58;2.72;;;2.13;;
80322;SDS011;69636;52.372;13.610;2023-05-07T17:16:26;3.33;;;2.13;;
80322;SDS011;69636;52.372;13.610;2023-05-07T17:18:53;3.63;;;2.80;;
80322;SDS011;69636;52.372;13.610;2023-05-07T17:21:20;3.72;;;2.90;;
80322;SDS011;69636;52.372;13.610;2023-05-07T17:23:47;4.22;;;2.72;;
80322;SDS011;69636;52.372;13.610;2023-05-07T17:26:15;4.72;;;3.88;;
80322;SDS011;69636;52.372;13.610;2023-05-07T17:28:43;3.72;;;2.45;;
80322;SDS011;69636;52.372;13.610;2023-05-07T17:31:12;3.50;;;2.20;;
80322;SDS011;69636;52.372;13.610;2023-05-07T17:33:41;3.35;;;2.58;;
80322;SDS011;69636;52.372;13.610;2023-05-07T17:36:09;8.50;;;7.03;;
80322;SDS011;69636;52.372;13.610;2023-05-07T17:38:36;2.97;;;2.67;;
80322;SDS011;69636;52.372;13.610;2023-05-07T17:41:04;7.03;;;6.25;;
80322;SDS011;69636;52.372;13.610;2023-05-07T17:43:31;4.75;;;2.92;;
80322;SDS011;69636;52.372;13.610;2023-05-07T17:45:58;4.75;;;3.08;;
80322;SDS011;69636;52.372;13.610;2023-05-07T17:48:27;4.18;;;3.30;;
80322;SDS011;69636;52.372;13.610;2023-05-07T17:50:59;2.97;;;1.98;;
80322;SDS011;69636;52.372;13.610;2023-05-07T17:53:27;3.95;;;2.22;;
80322;SDS011;69636;52.372;13.610;2023-05-07T17:55:54;4.78;;;2.72;;
80322;SDS011;69636;52.372;13.610;2023-05-07T17:58:23;3.92;;;2.75;;
80322;SDS011;69636;52.372;13.610;2023-05-07T18:00:50;4.35;;;2.72;;
80322;SDS011;69636;52.372;13.610;2023-05-07T18:03:19;2.67;;;2.10;;
80322;SDS011;69636;52.372;13.610;2023-05-07T18:05:48;3.30;;;2.13;;
80322;SDS011;69636;52.372;13.610;2023-05-07T18:08:16;2.95;;;2.22;;
80322;SDS011;69636;52.372;13.610;2023-05-07T18:10:43;3.50;;;1.80;;
80322;SDS011;69636;52.372;13.610;2023-05-07T18:13:11;3.38;;;2.15;;
80322;SDS011;69636;52.372;13.610;2023-05-07T18:15:38;3.13;;;1.83;;
80322;SDS011;69636;52.372;13.610;2023-05-07T18:18:05;4.15;;;2.08;;
80322;SDS011;69636;52.372;13.610;2023-05-07T18:20:33;3.83;;;2.90;;
80322;SDS011;69636;52.372;13.610;2023-05-07T18:23:02;3.45;;;2.47;;
80322;SDS011;69636;52.372;13.610;2023-05-07T18:25:31;3.45;;;2.13;;
80322;SDS011;69636;52.372;13.610;2023-05-07T18:27:58;4.50;;;2.63;;
80322;SDS011;69636;52.372;13.610;2023-05-07T18:30:26;3.45;;;1.73;;
80322;SDS011;69636;52.372;13.610;2023-05-07T18:32:54;4.00;;;2.28;;
80322;SDS011;69636;52.372;13.610;2023-05-07T18:35:21;2.83;;;1.60;;
80322;SDS011;69636;52.372;13.610;2023-05-07T18:37:49;3.38;;;2.15;;
80322;SDS011;69636;52.372;13.610;2023-05-07T18:40:19;24.48;;;18.05;;
80322;SDS011;69636;52.372;13.610;2023-05-07T18:42:46;2.85;;;1.98;;
80322;SDS011;69636;52.372;13.610;2023-05-07T18:45:13;4.28;;;2.13;;
80322;SDS011;69636;52.372;13.610;2023-05-07T18:47:41;3.33;;;1.90;;
80322;SDS011;69636;52.372;13.610;2023-05-07T18:50:09;3.10;;;1.73;;
80322;SDS011;69636;52.372;13.610;2023-05-07T18:52:38;4.35;;;2.90;;
80322;SDS011;69636;52.372;13.610;2023-05-07T18:55:05;3.67;;;2.00;;
80322;SDS011;69636;52.372;13.610;2023-05-07T18:57:35;5.03;;;2.83;;
80322;SDS011;69636;52.372;13.610;2023-05-07T19:00:03;3.20;;;1.98;;
80322;SDS011;69636;52.372;13.610;2023-05-07T19:02:31;4.45;;;2.22;;
80322;SDS011;69636;52.372;13.610;2023-05-07T19:04:59;3.90;;;2.35;;
80322;SDS011;69636;52.372;13.610;2023-05-07T19:07:26;3.58;;;2.63;;
80322;SDS011;69636;52.372;13.610;2023-05-07T19:09:53;2.95;;;2.22;;
80322;SDS011;69636;52.372;13.610;2023-05-07T19:12:31;3.38;;;1.90;;
80322;SDS011;69636;52.372;13.610;2023-05-07T19:15:00;3.50;;;2.55;;
80322;SDS011;69636;52.372;13.610;2023-05-07T19:17:28;3.25;;;1.80;;
80322;SDS011;69636;52.372;13.610;2023-05-07T19:19:55;3.50;;;2.63;;
80322;SDS011;69636;52.372;13.610;2023-05-07T19:22:22;3.58;;;2.28;;
80322;SDS011;69636;52.372;13.610;2023-05-07T19:24:50;3.40;;;2.17;;
80322;SDS011;69636;52.372;13.610;2023-05-07T19:27:17;3.85;;;2.13;;
80322;SDS011;69636;52.372;13.610;2023-05-07T19:29:44;3.80;;;2.22;;
80322;SDS011;69636;52.372;13.610;2023-05-07T19:32:13;4.35;;;2.60;;
80322;SDS011;69636;52.372;13.610;2023-05-07T19:34:41;4.00;;;2.00;;
80322;SDS011;69636;52.372;13.610;2023-05-07T19:37:09;3.40;;;2.05;;
80322;SDS011;69636;52.372;13.610;2023-05-07T19:39:43;4.05;;;2.53;;
80322;SDS011;69636;52.372;13.610;2023-05-07T19:42:12;4.05;;;2.67;;
80322;SDS011;69636;52.372;13.610;2023-05-07T19:44:40;3.65;;;2.40;;
80322;SDS011;69636;52.372;13.610;2023-05-07T19:47:07;3.92;;;2.90;;
80322;SDS011;69636;52.372;13.610;2023-05-07T19:49:43;4.05;;;2.40;;
80322;SDS011;69636;52.372;13.610;2023-05-07T19:52:10;8.23;;;4.03;;
80322;SDS011;69636;52.372;13.610;2023-05-07T19:54:38;3.60;;;3.05;;
80322;SDS011;69636;52.372;13.610;2023-05-07T19:57:05;4.90;;;3.45;;
80322;SDS011;69636;52.372;13.610;2023-05-07T19:59:36;5.15;;;2.83;;
80322;SDS011;69636;52.372;13.610;2023-05-07T20:02:03;3.95;;;2.63;;
80322;SDS011;69636;52.372;13.610;2023-05-07T20:04:31;4.43;;;2.92;;
80322;SDS011;69636;52.372;13.610;2023-05-07T20:07:00;4.70;;;3.08;;
80322;SDS011;69636;52.372;13.610;2023-05-07T20:09:28;3.92;;;2.75;;
80322;SDS011;69636;52.372;13.610;2023-05-07T20:11:55;4.82;;;3.42;;
80322;SDS011;69636;52.372;13.610;2023-05-07T20:14:22;4.75;;;2.85;;
80322;SDS011;69636;52.372;13.610;2023-05-07T20:16:49;4.40;;;3.25;;
80322;SDS011;69636;52.372;13.610;2023-05-07T20:19:19;4.13;;;3.03;;
80322;SDS011;69636;52.372;13.610;2023-05-07T20:21:47;5.85;;;4.97;;
80322;SDS011;69636;52.372;13.610;2023-05-07T20:24:15;4.65;;;3.53;;
80322;SDS011;69636;52.372;13.610;2023-05-07T20:26:43;4.95;;;3.25;;
80322;SDS011;69636;52.372;13.610;2023-05-07T20:29:11;5.47;;;3.53;;
80322;SDS011;69636;52.372;13.610;2023-05-07T20:31:38;4.82;;;4.03;;
80322;SDS011;69636;52.372;13.610;2023-05-07T20:34:10;4.35;;;3.22;;
80322;SDS011;69636;52.372;13.610;2023-05-07T20:36:37;4.32;;;3.00;;
80322;SDS011;69636;52.372;13.610;2023-05-07T20:39:05;4.05;;;3.63;;
80322;SDS011;69636;52.372;13.610;2023-05-07T20:41:34;5.53;;;4.30;;
80322;SDS011;69636;52.372;13.610;2023-05-07T20:44:04;5.55;;;4.00;;
80322;SDS011;69636;52.372;13.610;2023-05-07T20:46:31;4.85;;;4.28;;
80322;SDS011;69636;52.372;13.610;2023-05-07T20:49:02;6.38;;;4.00;;
80322;SDS011;69636;52.372;13.610;2023-05-07T20:53:57;5.57;;;3.78;;
80322;SDS011;69636;52.372;13.610;2023-05-07T20:56:25;4.97;;;3.88;;
80322;SDS011;69636;52.372;13.610;2023-05-07T20:58:53;5.60;;;4.70;;
80322;SDS011;69636;52.372;13.610;2023-05-07T21:01:21;4.57;;;3.38;;
80322;SDS011;69636;52.372;13.610;2023-05-07T21:03:48;5.15;;;3.85;;
80322;SDS011;69636;52.372;13.610;2023-05-07T21:06:15;4.50;;;4.10;;
80322;SDS011;69636;52.372;13.610;2023-05-07T21:08:42;4.57;;;3.97;;
80322;SDS011;69636;52.372;13.610;2023-05-07T21:11:10;4.53;;;3.80;;
80322;SDS011;69636;52.372;13.610;2023-05-07T21:13:37;5.80;;;4.18;;
80322;SDS011;69636;52.372;13.610;2023-05-07T21:16:08;5.82;;;3.80;;
80322;SDS011;69636;52.372;13.610;2023-05-07T21:18:36;5.60;;;5.10;;
80322;SDS011;69636;52.372;13.610;2023-05-07T21:21:05;6.40;;;5.07;;
80322;SDS011;69636;52.372;13.610;2023-05-07T21:23:36;5.22;;;4.57;;
80322;SDS011;69636;52.372;13.610;2023-05-07T21:26:03;6.25;;;4.75;;
80322;SDS011;69636;52.372;13.610;2023-05-07T21:28:30;5.72;;;5.20;;
80322;SDS011;69636;52.372;13.610;2023-05-07T21:30:58;7.15;;;4.60;;
80322;SDS011;69636;52.372;13.610;2023-05-07T21:33:26;5.25;;;4.75;;
80322;SDS011;69636;52.372;13.610;2023-05-07T21:35:56;5.20;;;4.15;;
80322;SDS011;69636;52.372;13.610;2023-05-07T21:38:24;5.68;;;4.70;;
80322;SDS011;69636;52.372;13.610;2023-05-07T21:40:51;6.35;;;4.85;;
80322;SDS011;69636;52.372;13.610;2023-05-07T21:43:22;4.97;;;4.05;;
80322;SDS011;69636;52.372;13.610;2023-05-07T21:45:50;6.03;;;4.30;;
80322;SDS011;69636;52.372;13.610;2023-05-07T21:48:17;5.80;;;4.28;;
80322;SDS011;69636;52.372;13.610;2023-05-07T21:50:46;6.38;;;4.68;;
80322;SDS011;69636;52.372;13.610;2023-05-07T21:53:14;5.40;;;4.15;;
80322;SDS011;69636;52.372;13.610;2023-05-07T21:55:42;6.20;;;4.47;;
80322;SDS011;69636;52.372;13.610;2023-05-07T21:58:11;6.22;;;5.63;;
80322;SDS011;69636;52.372;13.610;2023-05-07T22:00:39;6.35;;;5.20;;
80322;SDS011;69636;52.372;13.610;2023-05-07T22:03:06;5.25;;;4.25;;
80322;SDS011;69636;52.372;13.610;2023-05-07T22:05:34;6.13;;;4.97;;
80322;SDS011;69636;52.372;13.610;2023-05-07T22:08:03;5.22;;;4.70;;
80322;SDS011;69636;52.372;13.610;2023-05-07T22:10:30;6.07;;;4.45;;
80322;SDS011;69636;52.372;13.610;2023-05-07T22:12:58;7.40;;;4.50;;
80322;SDS011;69636;52.372;13.610;2023-05-07T22:15:25;6.82;;;4.85;;
80322;SDS011;69636;52.372;13.610;2023-05-07T22:17:53;5.70;;;5.13;;
80322;SDS011;69636;52.372;13.610;2023-05-07T22:20:20;7.13;;;5.00;;
80322;SDS011;69636;52.372;13.610;2023-05-07T22:22:48;6.78;;;5.03;;
80322;SDS011;69636;52.372;13.610;2023-05-07T22:25:20;7.20;;;6.07;;
80322;SDS011;69636;52.372;13.610;2023-05-07T22:27:48;6.22;;;5.20;;
80322;SDS011;69636;52.372;13.610;2023-05-07T22:30:16;5.75;;;5.00;;
80322;SDS011;69636;52.372;13.610;2023-05-07T22:32:45;6.80;;;4.97;;
80322;SDS011;69636;52.372;13.610;2023-05-07T22:35:13;5.82;;;5.20;;
80322;SDS011;69636;52.372;13.610;2023-05-07T22:37:41;6.60;;;5.55;;
80322;SDS011;69636;52.372;13.610;2023-05-07T22:40:08;8.55;;;5.85;;
80322;SDS011;69636;52.372;13.610;2023-05-07T22:42:38;6.57;;;5.20;;
80322;SDS011;69636;52.372;13.610;2023-05-07T22:45:07;8.15;;;5.93;;
80322;SDS011;69636;52.372;13.610;2023-05-07T22:47:35;6.47;;;5.85;;
80322;SDS011;69636;52.372;13.610;2023-05-07T22:50:03;6.40;;;5.07;;
80322;SDS011;69636;52.372;13.610;2023-05-07T22:52:31;7.20;;;5.55;;
80322;SDS011;69636;52.372;13.610;2023-05-07T22:54:58;7.13;;;5.68;;
80322;SDS011;69636;52.372;13.610;2023-05-07T22:57:25;6.53;;;5.13;;
80322;SDS011;69636;52.372;13.610;2023-05-07T22:59:54;7.28;;;6.57;;
80322;SDS011;69636;52.372;13.610;2023-05-07T23:02:22;7.75;;;5.35;;
80322;SDS011;69636;52.372;13.610;2023-05-07T23:04:50;6.13;;;5.10;;
80322;SDS011;69636;52.372;13.610;2023-05-07T23:07:17;6.95;;;5.20;;
80322;SDS011;69636;52.372;13.610;2023-05-07T23:12:12;8.07;;;5.43;;
80322;SDS011;69636;52.372;13.610;2023-05-07T23:14:39;5.68;;;4.63;;
80322;SDS011;69636;52.372;13.610;2023-05-07T23:17:08;7.18;;;5.15;;
80322;SDS011;69636;52.372;13.610;2023-05-07T23:19:35;5.97;;;5.15;;
80322;SDS011;69636;52.372;13.610;2023-05-07T23:22:03;7.60;;;5.13;;
80322;SDS011;69636;52.372;13.610;2023-05-07T23:24:30;6.78;;;6.15;;
80322;SDS011;69636;52.372;13.610;2023-05-07T23:26:57;6.20;;;5.60;;
80322;SDS011;69636;52.372;13.610;2023-05-07T23:29:26;6.85;;;5.85;;
80322;SDS011;69636;52.372;13.610;2023-05-07T23:31:54;6.43;;;4.88;;
80322;SDS011;69636;52.372;13.610;2023-05-07T23:34:22;7.40;;;5.40;;